UUOO/VOZ METAR and TAF weather

Enter ICAO airport designator
Station Type Date Time Source
UUOO METAR 2019/10/10 11:00 UTC NOAA

UUOO 101100Z 16003MPS 6000 -RA OVC017 09/08 Q1014 R12/290250 NOSIG RMK QFE747


Station Type Date Time Source
UUOO Decoded METAR 2019/10/10 11:00 UTC NOAA

Voronez, Russia (UUOO) 51-39N 039-15E 104M
Oct 10, 2019 - 07:00 AM EDT / 2019.10.10 1100 UTC
Wind: from the SSE (160 degrees) at 7 MPH (6 KT):0
Visibility: 3 mile(s):0
Sky conditions: overcast
Weather: light rain
Temperature: 48 F (9 C)
Dew Point: 46 F (8 C)
Relative Humidity: 93%
Pressure (altimeter): 29.94 in. Hg (1014 hPa)
ob: UUOO 101100Z 16003MPS 6000 -RA OVC017 09/08 Q1014 R12/290250 NOSIG RMK QFE747
cycle: 11

Station Type Date Time Source
UUOO TAF 2019/08/12 03:33 UTC NOAA

TAF COR TAF COR UUOO 120159 1203/1212 31003MPS CAVOK

Example: see airport list